Data Viewer
| City | State | Eastern Time | Source | 1 Hour Temp Max | 1 Hour Temp Min | 1 Hour Dew Point Max | 1 Hour Dew Point Min | 1 Hour RH Max | 1 Hour RH Min | 1 Hour BP Max | 1 Hour BP Min | 1 Hour Precip | 1 Hour Wind Max | 1 Hour Wind Max Dir |
|---|---|---|---|---|---|---|---|---|---|---|---|---|---|---|
| Silas Little | NJ | 2026-05-07 15:00 | USFS | 64 | 60 | 36 | 30 | 39 | 29 | 29.82 | 29.79 | 0.00 | 14 | NNE |
| Silas Little | NJ | 2026-05-08 04:00 | USFS | 49 | 47 | 45 | 41 | 92 | 76 | 29.88 | 29.83 | 0.00 | 12 | SSW |
| Silas Little | NJ | 2026-05-08 13:00 | USFS | 65 | 60 | 31 | 28 | 30 | 26 | 29.94 | 29.92 | 0.00 | 25 | WNW |
| Silas Little | NJ | 2026-05-08 12:00 | USFS | 64 | 59 | 32 | 27 | 34 | 26 | 29.96 | 29.93 | 0.00 | 18 | WSW |
| Silas Little | NJ | 2026-05-08 11:00 | USFS | 60 | 57 | 33 | 29 | 39 | 32 | 29.96 | 29.95 | 0.00 | 19 | WNW |
| Silas Little | NJ | 2026-05-08 10:00 | USFS | 60 | 54 | 37 | 29 | 51 | 34 | 29.97 | 29.96 | 0.00 | 11 | WNW |
| Silas Little | NJ | 2026-05-08 09:00 | USFS | 55 | 50 | 41 | 35 | 67 | 49 | 29.97 | 29.96 | 0.00 | 10 | N |
| Silas Little | NJ | 2026-05-08 08:00 | USFS | 51 | 46 | 41 | 39 | 78 | 66 | 29.96 | 29.95 | 0.00 | 7 | WNW |
| Silas Little | NJ | 2026-05-08 07:00 | USFS | 46 | 44 | 40 | 38 | 83 | 77 | 29.95 | 29.93 | 0.00 | 4 | W |
| Silas Little | NJ | 2026-05-08 06:00 | USFS | 46 | 44 | 39 | 38 | 80 | 76 | 29.93 | 29.91 | 0.00 | 4 | SSW |
| Silas Little | NJ | 2026-05-08 05:00 | USFS | 48 | 45 | 41 | 39 | 78 | 74 | 29.91 | 29.87 | 0.00 | 6 | SW |
| Silas Little | NJ | 2026-05-08 03:00 | USFS | 49 | 47 | 46 | 45 | 93 | 86 | 29.83 | 29.82 | 0.00 | 4 | SSW |
| Silas Little | NJ | 2026-05-07 16:00 | USFS | 65 | 62 | 33 | 28 | 31 | 25 | 29.80 | 29.78 | 0.00 | 15 | W |
| Silas Little | NJ | 2026-05-08 02:00 | USFS | 50 | 49 | 46 | 45 | 88 | 84 | 29.83 | 29.82 | 0.00 | 7 | S |
| Silas Little | NJ | 2026-05-08 01:00 | USFS | 50 | 48 | 46 | 45 | 91 | 88 | 29.83 | 29.82 | 0.00 | 7 | S |
| Silas Little | NJ | 2026-05-08 00:00 | USFS | 50 | 49 | 47 | 46 | 91 | 89 | 29.83 | 29.82 | 0.00 | 10 | SSE |
| Silas Little | NJ | 2026-05-07 23:00 | USFS | 51 | 49 | 48 | 46 | 91 | 89 | 29.83 | 29.82 | 0.00 | 8 | SE |
| Silas Little | NJ | 2026-05-07 22:00 | USFS | 53 | 51 | 48 | 47 | 89 | 84 | 29.83 | 29.81 | 0.00 | 9 | WNW |
| Silas Little | NJ | 2026-05-07 21:00 | USFS | 54 | 53 | 48 | 46 | 84 | 75 | 29.81 | 29.80 | 0.00 | 10 | WNW |
| Silas Little | NJ | 2026-05-07 20:00 | USFS | 60 | 54 | 46 | 43 | 75 | 54 | 29.80 | 29.78 | 0.00 | 13 | WNW |
| Silas Little | NJ | 2026-05-07 19:00 | USFS | 64 | 59 | 43 | 28 | 54 | 26 | 29.78 | 29.77 | 0.00 | 12 | NW |
| Silas Little | NJ | 2026-05-07 18:00 | USFS | 66 | 63 | 32 | 27 | 29 | 25 | 29.78 | 29.77 | 0.00 | 11 | W |
| Silas Little | NJ | 2026-05-07 17:00 | USFS | 66 | 63 | 33 | 29 | 30 | 26 | 29.78 | 29.77 | 0.00 | 13 | WNW |
| Silas Little | NJ | 2026-05-08 14:00 | USFS | 65 | 63 | 31 | 28 | 29 | 26 | 29.92 | 29.91 | 0.00 | 22 | WNW |
data collection created in 0.0086748600006104 (queried in 0.002600) rendered in: 5.4836273193359E-5

